Time;durP1;ratioP1;P1;durP2;ratioP2;P2;SDS_P1;SDS_P2;PMS_P1;PMS_P2;Temp;Humidity;BMP_temperature;BMP_pressure;BME280_temperature;BME280_humidity;BME280_pressure;Samples;Min_cycle;Max_cycle;Signal;HPM_P1;HPM_P2
2021/06/07 00:01:41;;;;;;;11.70;10.50;;;;;;;19.91;69.85;98294.41;8413896;28;20200;-86
2021/06/07 00:05:45;;;;;;;12.47;10.50;;;;;;;20.04;69.43;98298.69;8410603;28;20255;-85
2021/06/07 00:09:47;;;;;;;11.73;10.53;;;;;;;19.97;69.86;98281.72;8420448;28;20509;-86
2021/06/07 00:13:52;;;;;;;12.00;10.80;;;;;;;19.96;69.63;98294.03;8420886;28;20206;-85
2021/06/07 00:17:54;;;;;;;12.17;11.07;;;;;;;19.80;70.38;98288.28;8420221;28;20221;-85
2021/06/07 00:21:58;;;;;;;11.63;10.40;;;;;;;19.91;69.64;98298.81;8420710;28;20388;-85
2021/06/07 00:26:01;;;;;;;13.73;10.77;;;;;;;19.94;69.83;98289.88;8420544;28;20229;-86
2021/06/07 00:30:05;;;;;;;12.03;10.73;;;;;;;19.96;69.32;98293.22;8420970;28;20342;-82
2021/06/07 00:34:08;;;;;;;12.00;10.80;;;;;;;19.95;69.42;98300.22;8419562;28;20218;-83
2021/06/07 00:38:12;;;;;;;12.43;10.60;;;;;;;19.99;68.70;98293.81;8420030;28;20203;-83
2021/06/07 00:42:14;;;;;;;11.40;10.27;;;;;;;19.95;68.89;98294.97;8419509;28;20199;-83
2021/06/07 00:46:17;;;;;;;12.53;11.23;;;;;;;19.86;69.22;98298.34;8419490;28;20227;-84
2021/06/07 00:50:25;;;;;;;14.30;10.63;;;;;;;19.98;68.88;98297.38;8419288;28;20207;-85
2021/06/07 00:54:29;;;;;;;12.33;11.10;;;;;;;19.91;69.17;98293.53;8420606;28;20273;-85
2021/06/07 00:58:34;;;;;;;13.10;11.83;;;;;;;19.90;68.62;98295.34;8419321;28;20248;-85
2021/06/07 01:02:36;;;;;;;15.20;13.30;;;;;;;19.76;69.80;98289.47;8422115;28;20512;-84
2021/06/07 01:06:39;;;;;;;13.17;11.97;;;;;;;19.92;68.87;98293.44;8419015;28;20242;-85
2021/06/07 01:10:43;;;;;;;15.13;12.50;;;;;;;19.90;68.90;98297.97;8418857;28;20210;-85
2021/06/07 01:14:47;;;;;;;16.10;13.37;;;;;;;19.95;68.47;98284.47;8419012;28;20207;-84
2021/06/07 01:18:50;;;;;;;15.20;13.40;;;;;;;19.98;68.33;98286.03;8418744;28;20396;-84
2021/06/07 01:22:54;;;;;;;14.07;12.70;;;;;;;19.95;68.27;98297.59;8418784;28;20199;-84
2021/06/07 01:26:56;;;;;;;15.03;13.47;;;;;;;19.95;68.20;98291.53;8418421;28;20528;-85
2021/06/07 01:30:59;;;;;;;14.60;13.10;;;;;;;19.99;68.31;98293.81;8418587;28;20205;-84
2021/06/07 01:35:03;;;;;;;13.27;11.90;;;;;;;20.03;68.18;98297.00;8418593;28;20523;-85
2021/06/07 01:39:07;;;;;;;13.47;12.07;;;;;;;20.04;68.09;98296.91;8418076;28;20210;-85
2021/06/07 01:43:10;;;;;;;13.70;12.30;;;;;;;20.07;67.91;98291.41;8417657;28;20200;-85
2021/06/07 01:47:12;;;;;;;12.50;11.50;;;;;;;20.02;68.31;98285.66;8417249;28;20253;-84
2021/06/07 01:51:15;;;;;;;14.20;11.87;;;;;;;20.02;68.08;98285.66;8416927;28;20203;-83
2021/06/07 01:55:20;;;;;;;14.53;12.03;;;;;;;19.90;68.23;98284.00;8416673;28;20212;-83
2021/06/07 01:59:22;;;;;;;13.70;11.63;;;;;;;19.91;68.47;98285.66;8416901;28;20203;-85
2021/06/07 02:03:25;;;;;;;12.70;11.40;;;;;;;19.89;68.60;98274.44;8416598;28;20525;-85
2021/06/07 02:07:28;;;;;;;14.23;12.10;;;;;;;19.86;68.57;98286.03;8416919;28;20243;-85
2021/06/07 02:11:31;;;;;;;13.70;10.93;;;;;;;19.87;68.70;98274.53;8417237;28;20253;-85
2021/06/07 02:15:34;;;;;;;12.03;10.93;;;;;;;19.76;68.86;98269.28;8416589;28;20203;-85
2021/06/07 02:19:39;;;;;;;11.83;10.73;;;;;;;19.83;68.83;98269.66;8416166;28;20293;-84
2021/06/07 02:23:41;;;;;;;12.40;11.20;;;;;;;19.83;68.73;98272.28;8416115;28;20556;-84
2021/06/07 02:27:45;;;;;;;11.80;10.77;;;;;;;19.88;68.68;98272.78;8416127;28;20407;-84
2021/06/07 02:31:48;;;;;;;12.83;11.43;;;;;;;19.78;68.71;98269.16;8415765;28;20199;-84
2021/06/07 02:35:50;;;;;;;15.57;12.13;;;;;;;19.77;68.65;98270.97;8415898;28;20203;-84
2021/06/07 02:39:53;;;;;;;13.73;12.40;;;;;;;19.73;68.83;98273.00;8415804;28;20520;-86
2021/06/07 02:43:57;;;;;;;14.03;12.73;;;;;;;19.78;68.97;98264.78;8415804;28;20199;-85
2021/06/07 02:48:01;;;;;;;14.40;12.80;;;;;;;19.66;68.84;98257.78;8415670;28;20222;-85
2021/06/07 02:52:04;;;;;;;15.77;13.87;;;;;;;19.73;68.62;98267.75;8418340;28;20191;-85
2021/06/07 02:56:07;;;;;;;16.07;14.43;;;;;;;19.72;69.05;98267.84;8415072;28;20393;-85
2021/06/07 03:00:13;;;;;;;16.87;15.10;;;;;;;19.80;68.68;98278.63;8415074;28;20211;-85
2021/06/07 03:04:15;;;;;;;16.37;14.87;;;;;;;19.75;68.65;98270.25;8414643;28;20204;-86
2021/06/07 03:08:19;;;;;;;17.53;15.93;;;;;;;19.67;69.42;98281.31;8414335;28;20418;-86
2021/06/07 03:12:22;;;;;;;16.87;15.37;;;;;;;19.69;68.94;98278.59;8414417;28;20206;-86
2021/06/07 03:16:26;;;;;;;17.23;15.47;;;;;;;19.73;68.96;98278.25;8414549;28;20284;-85
2021/06/07 03:20:31;;;;;;;16.57;14.97;;;;;;;19.69;68.90;98278.59;8414404;28;20199;-86
2021/06/07 03:24:33;;;;;;;16.77;15.17;;;;;;;19.73;69.07;98282.69;8414452;28;20198;-85
2021/06/07 03:28:37;;;;;;;18.67;16.80;;;;;;;19.61;69.15;98278.31;8413985;28;20227;-83
2021/06/07 03:32:40;;;;;;;17.13;15.53;;;;;;;19.72;69.11;98291.50;8414176;28;20206;-83
2021/06/07 03:36:43;;;;;;;18.47;16.53;;;;;;;19.69;69.40;98283.84;8414134;28;20203;-83
2021/06/07 03:40:48;;;;;;;20.23;18.03;;;;;;;19.65;69.15;98283.22;8413787;28;20203;-83
2021/06/07 03:44:50;;;;;;;19.30;17.30;;;;;;;19.72;69.16;98286.25;8412815;28;20242;-83
2021/06/07 03:48:54;;;;;;;19.63;17.87;;;;;;;19.75;69.17;98285.19;8413793;28;20222;-83
2021/06/07 03:52:56;;;;;;;20.07;18.17;;;;;;;19.76;69.17;98284.22;8413801;28;20199;-83
2021/06/07 03:56:59;;;;;;;21.20;19.00;;;;;;;19.80;69.05;98288.28;8413217;28;20207;-83
2021/06/07 04:01:01;;;;;;;23.73;20.20;;;;;;;19.81;69.49;98287.34;8413229;28;20202;-84
2021/06/07 04:05:07;;;;;;;21.70;19.60;;;;;;;19.85;69.13;98292.22;8412698;28;20242;-84
2021/06/07 04:09:09;;;;;;;21.73;19.80;;;;;;;19.85;69.51;98288.78;8413511;28;20480;-84
2021/06/07 04:13:11;;;;;;;21.53;19.53;;;;;;;19.84;69.62;98281.84;8413386;28;20217;-84
2021/06/07 04:17:14;;;;;;;21.90;19.70;;;;;;;19.77;69.54;98283.28;8413496;28;20203;-84
2021/06/07 04:21:18;;;;;;;22.60;20.40;;;;;;;19.88;69.36;98286.75;8413174;28;20514;-84
2021/06/07 04:25:22;;;;;;;22.37;20.27;;;;;;;19.95;69.03;98283.63;8413084;28;20206;-83
2021/06/07 04:29:25;;;;;;;22.20;20.00;;;;;;;20.03;69.09;98287.34;8416623;28;20253;-86
2021/06/07 04:33:27;;;;;;;23.43;20.60;;;;;;;20.05;68.86;98285.44;8412956;28;20376;-86
2021/06/07 04:37:31;;;;;;;11.27;10.27;;;;;;;20.43;67.61;98292.09;8412993;28;20214;-83
2021/06/07 04:41:33;;;;;;;14.27;12.80;;;;;;;20.59;67.07;98286.44;8412893;28;20199;-83
2021/06/07 04:45:37;;;;;;;18.40;12.97;;;;;;;20.69;66.77;98283.91;8413039;28;20222;-84
2021/06/07 04:49:40;;;;;;;17.80;14.97;;;;;;;20.79;66.34;98291.91;8413148;28;20368;-84
2021/06/07 04:53:43;;;;;;;20.43;17.90;;;;;;;20.75;66.44;98293.13;8413788;28;20367;-85
2021/06/07 04:57:46;;;;;;;19.57;17.57;;;;;;;20.89;65.54;98287.59;8418603;28;20199;-84
2021/06/07 05:01:48;;;;;;;20.03;14.60;;;;;;;20.94;65.37;98282.75;8418761;28;20394;-85
2021/06/07 05:05:51;;;;;;;19.77;17.77;;;;;;;21.05;65.28;98287.97;8418445;28;20241;-86
2021/06/07 05:09:55;;;;;;;17.50;15.83;;;;;;;21.14;64.90;98296.94;8418446;28;20210;-86
2021/06/07 05:13:58;;;;;;;22.17;19.67;;;;;;;21.25;64.58;98286.34;8400390;28;20197;-87
2021/06/07 05:18:01;;;;;;;23.53;20.17;;;;;;;21.16;64.88;98294.16;8419257;28;20195;-91
2021/06/07 05:22:04;;;;;;;17.37;15.67;;;;;;;21.33;64.50;98296.22;8418853;28;20191;-90
2021/06/07 05:26:08;;;;;;;18.47;16.67;;;;;;;21.30;64.58;98296.47;8418072;28;20217;-91
2021/06/07 05:30:11;;;;;;;22.43;18.43;;;;;;;21.10;65.13;98303.41;8418178;28;20233;-94
2021/06/07 05:34:14;;;;;;;22.03;19.80;;;;;;;21.20;64.39;98308.75;8420369;28;20202;-94
2021/06/07 05:38:18;;;;;;;20.00;18.00;;;;;;;21.27;64.01;98317.81;8426505;28;20197;-93
2021/06/07 05:42:22;;;;;;;22.17;19.87;;;;;;;21.17;64.29;98312.47;8421859;28;20201;-94
2021/06/07 05:46:24;;;;;;;25.73;22.30;;;;;;;21.12;65.13;98317.28;8418710;28;20219;-94
2021/06/07 05:50:30;;;;;;;25.27;22.67;;;;;;;21.08;64.32;98318.50;8417890;28;20197;-95
2021/06/07 05:54:32;;;;;;;24.97;22.17;;;;;;;21.11;64.11;98318.22;8389225;28;20217;-92
2021/06/07 05:58:36;;;;;;;25.33;22.67;;;;;;;21.12;64.20;98321.72;8388786;28;20201;-86
2021/06/07 06:02:38;;;;;;;25.90;21.70;;;;;;;21.15;63.55;98321.44;8410532;28;20205;-87
2021/06/07 06:06:41;;;;;;;26.73;23.53;;;;;;;21.00;64.40;98321.75;8415261;28;20238;-86
2021/06/07 06:10:43;;;;;;;27.30;24.40;;;;;;;20.91;64.05;98327.78;8416453;28;20274;-87
2021/06/07 06:15:10;;;;;;;27.47;23.00;;;;;;;20.86;64.72;98328.13;8417852;28;20394;-87
2021/06/07 06:19:12;;;;;;;27.87;24.30;;;;;;;20.87;64.94;98326.34;8418368;28;20205;-86
2021/06/07 06:23:15;;;;;;;28.70;22.33;;;;;;;20.94;64.90;98324.88;8417895;28;20360;-86
2021/06/07 06:27:17;;;;;;;26.13;23.37;;;;;;;20.90;64.76;98326.09;8416708;28;20227;-86
2021/06/07 06:31:21;;;;;;;28.37;25.17;;;;;;;20.80;64.24;98330.44;8416170;28;20201;-86
2021/06/07 06:35:24;;;;;;;30.07;24.73;;;;;;;20.76;65.01;98331.66;8416105;28;20207;-86
2021/06/07 06:39:27;;;;;;;26.40;22.73;;;;;;;21.05;63.94;98326.63;8416047;28;20497;-87
2021/06/07 06:43:29;;;;;;;27.87;23.87;;;;;;;20.92;64.71;98333.88;8416456;28;20212;-87
2021/06/07 06:47:34;;;;;;;26.20;23.40;;;;;;;20.98;64.49;98339.47;8415648;28;20226;-86
2021/06/07 06:51:37;;;;;;;28.23;25.13;;;;;;;20.84;63.63;98339.75;8415927;28;20202;-87
2021/06/07 06:55:40;;;;;;;29.93;26.73;;;;;;;20.64;64.23;98336.09;8418526;28;20205;-86
2021/06/07 06:59:42;;;;;;;28.40;21.77;;;;;;;21.08;63.74;98340.41;8422712;28;20213;-95
2021/06/07 07:03:47;;;;;;;29.30;23.97;;;;;;;21.18;63.66;98343.09;8420199;28;20268;-93
2021/06/07 07:07:53;;;;;;;26.83;21.23;;;;;;;21.35;62.89;98349.63;8417701;28;20248;-93
2021/06/07 07:11:55;;;;;;;26.93;21.63;;;;;;;21.53;62.11;98349.09;8418445;28;20209;-95
2021/06/07 07:15:57;;;;;;;25.70;22.87;;;;;;;21.46;62.31;98343.50;8417773;28;20207;-94
2021/06/07 07:20:01;;;;;;;26.83;23.87;;;;;;;21.56;61.86;98351.47;8418381;28;20252;-94
2021/06/07 07:24:05;;;;;;;26.93;22.80;;;;;;;21.51;62.53;98348.38;8421481;28;20504;-95
2021/06/07 07:28:09;;;;;;;26.33;23.53;;;;;;;21.57;62.04;98353.13;8427420;28;20236;-94
2021/06/07 07:32:12;;;;;;;30.03;23.27;;;;;;;21.64;61.92;98357.75;8429957;28;20196;-93
2021/06/07 07:36:16;;;;;;;27.97;24.50;;;;;;;21.78;60.84;98356.63;8429902;28;20199;-94
2021/06/07 07:40:21;;;;;;;28.93;21.97;;;;;;;21.97;61.28;98358.53;8426620;28;20210;-94
2021/06/07 07:44:23;;;;;;;25.67;22.90;;;;;;;21.95;60.53;98365.75;8423032;28;20202;-94
2021/06/07 07:48:25;;;;;;;24.50;21.87;;;;;;;22.23;59.69;98355.44;8424299;28;20230;-93
2021/06/07 07:52:30;;;;;;;27.23;24.20;;;;;;;22.33;59.56;98355.53;8430038;28;20214;-93
2021/06/07 07:56:33;;;;;;;26.93;22.23;;;;;;;22.59;59.51;98356.72;8430967;28;20206;-94
2021/06/07 08:00:37;;;;;;;25.10;22.30;;;;;;;22.49;59.19;98363.78;8432876;28;20201;-94
2021/06/07 08:04:41;;;;;;;29.47;23.40;;;;;;;22.45;58.88;98362.38;8432261;28;20198;-94
2021/06/07 08:08:45;;;;;;;28.57;22.70;;;;;;;22.60;59.00;98360.22;8428627;28;20260;-93
2021/06/07 08:12:47;;;;;;;25.47;22.70;;;;;;;22.32;58.43;98361.78;8429880;28;20209;-94
2021/06/07 08:16:54;;;;;;;30.63;24.57;;;;;;;22.11;58.29;98359.16;8429665;28;20226;-94
2021/06/07 08:20:56;;;;;;;23.57;21.07;;;;;;;22.66;58.48;98359.69;8430478;28;20203;-93
2021/06/07 08:25:01;;;;;;;27.73;20.17;;;;;;;23.17;57.20;98360.47;8430107;28;20207;-93
2021/06/07 08:29:03;;;;;;;24.07;20.87;;;;;;;23.23;56.37;98352.00;8422087;28;20226;-94
2021/06/07 08:33:06;;;;;;;25.83;20.63;;;;;;;23.38;56.38;98355.03;8427697;28;20203;-94
2021/06/07 08:37:09;;;;;;;23.07;20.63;;;;;;;23.16;56.45;98353.53;8431309;28;20198;-94
2021/06/07 08:41:13;;;;;;;19.90;17.80;;;;;;;23.10;56.31;98347.00;8431458;28;20206;-92
2021/06/07 08:45:17;;;;;;;23.40;20.90;;;;;;;22.81;56.99;98349.56;8430057;28;20199;-93
2021/06/07 08:49:21;;;;;;;22.97;20.67;;;;;;;22.54;57.35;98360.72;8429966;28;20324;-94
2021/06/07 08:53:23;;;;;;;21.50;19.03;;;;;;;22.82;57.62;98357.31;8425916;28;20206;-93
2021/06/07 08:57:27;;;;;;;29.80;20.30;;;;;;;22.86;57.04;98357.06;8429791;28;20202;-86
2021/06/07 09:01:30;;;;;;;20.83;18.63;;;;;;;23.09;57.43;98357.69;8427598;28;20199;-86
2021/06/07 09:05:33;;;;;;;24.10;17.87;;;;;;;23.09;56.75;98361.16;8428475;28;20269;-85
2021/06/07 09:09:36;;;;;;;24.43;19.43;;;;;;;22.80;57.79;98361.09;8426043;28;20237;-86
2021/06/07 09:13:54;;;;;;;24.47;19.50;;;;;;;22.77;57.85;98363.97;8426708;28;20205;-85
2021/06/07 09:17:56;;;;;;;26.03;18.80;;;;;;;23.04;57.68;98363.38;8426595;28;20212;-85
2021/06/07 09:22:23;;;;;;;24.97;17.60;;;;;;;23.18;56.75;98360.31;8427240;28;20202;-85
2021/06/07 09:26:28;;;;;;;25.57;19.43;;;;;;;23.40;56.86;98358.41;8426689;28;20527;-85
2021/06/07 09:30:34;;;;;;;22.30;19.97;;;;;;;23.96;55.35;98356.81;8427814;28;20392;-86
2021/06/07 09:34:37;;;;;;;21.77;18.87;;;;;;;24.03;55.54;98352.63;8424792;28;20206;-85
2021/06/07 09:39:01;;;;;;;24.07;20.17;;;;;;;23.89;55.36;98353.06;8422085;28;20226;-85
2021/06/07 09:43:05;;;;;;;22.27;18.67;;;;;;;24.03;54.02;98357.06;8421628;28;20198;-85
2021/06/07 09:47:13;;;;;;;21.13;18.73;;;;;;;25.01;51.16;98352.97;8425370;28;20231;-86
2021/06/07 09:51:19;;;;;;;19.67;17.57;;;;;;;25.56;50.65;98355.47;8423286;28;20268;-85
2021/06/07 09:55:23;;;;;;;20.27;18.07;;;;;;;26.22;49.13;98350.63;8426027;28;20199;-86
2021/06/07 09:59:27;;;;;;;17.73;16.03;;;;;;;26.61;49.92;98341.38;8425503;28;20211;-84
2021/06/07 10:03:38;;;;;;;20.33;16.53;;;;;;;25.49;51.64;98354.44;8423353;28;20269;-85
2021/06/07 10:07:53;;;;;;;21.83;18.30;;;;;;;25.23;49.21;98342.97;8421301;28;20270;-85
2021/06/07 10:11:55;;;;;;;19.50;17.40;;;;;;;25.88;48.27;98346.09;8422016;28;20200;-85
2021/06/07 10:15:58;;;;;;;18.73;15.50;;;;;;;26.81;46.81;98337.44;8424439;28;20275;-85
2021/06/07 10:24:24;;;;;;;14.70;13.30;;;;;;;26.78;47.87;98334.28;8423346;28;20204;-86
2021/06/07 10:28:28;;;;;;;15.87;14.17;;;;;;;26.67;46.94;98330.94;8423374;28;20216;-85
2021/06/07 10:32:30;;;;;;;16.00;12.60;;;;;;;25.98;45.87;98334.59;8418546;28;20198;-86
2021/06/07 10:36:42;;;;;;;11.70;10.60;;;;;;;26.74;46.31;98332.94;8418315;28;20200;-85
2021/06/07 10:40:47;;;;;;;12.00;10.80;;;;;;;27.80;44.42;98333.03;8418054;28;20245;-85
2021/06/07 10:44:53;;;;;;;12.87;11.57;;;;;;;27.28;43.63;98328.06;8415401;28;20219;-84
2021/06/07 10:48:56;;;;;;;14.17;12.73;;;;;;;26.41;45.98;98328.31;8418643;28;20307;-84
2021/06/07 10:53:02;;;;;;;16.27;14.63;;;;;;;27.43;47.74;98317.59;8417838;28;20210;-84
2021/06/07 10:57:34;;;;;;;16.50;14.80;;;;;;;26.79;47.32;98306.69;8418665;28;20211;-85
2021/06/07 11:01:48;;;;;;;16.90;13.23;;;;;;;26.42;47.07;98323.84;8414262;28;20205;-85
2021/06/07 11:06:03;;;;;;;15.90;13.77;;;;;;;25.97;49.41;98322.28;8385240;28;20541;-85
2021/06/07 11:10:15;;;;;;;14.17;12.70;;;;;;;26.99;46.76;98328.50;8386556;28;20404;-87
2021/06/07 11:14:18;;;;;;;15.67;13.50;;;;;;;26.98;45.52;98319.72;8384360;28;20466;-84
2021/06/07 11:18:27;;;;;;;12.97;11.67;;;;;;;26.80;46.95;98319.00;8383562;28;20224;-86
2021/06/07 11:22:30;;;;;;;14.37;12.17;;;;;;;26.25;48.11;98312.31;8384048;28;20414;-88
2021/06/07 11:26:39;;;;;;;14.37;12.87;;;;;;;25.67;48.71;98319.13;8384221;28;20208;-88
2021/06/07 11:30:42;;;;;;;14.00;12.47;;;;;;;25.54;49.43;98320.34;8383545;28;20213;-87
2021/06/07 11:34:46;;;;;;;15.07;13.57;;;;;;;25.44;51.01;98316.97;8384232;28;20521;-88
2021/06/07 11:38:59;;;;;;;14.10;12.80;;;;;;;25.51;50.19;98307.41;8368467;28;20479;-90
2021/06/07 11:43:04;;;;;;;13.60;12.30;;;;;;;26.44;47.02;98293.47;8418752;28;20500;-87
2021/06/07 11:47:06;;;;;;;15.10;11.87;;;;;;;26.37;46.35;98292.47;8413021;28;20224;-85
2021/06/07 11:51:29;;;;;;;15.47;13.87;;;;;;;25.32;50.69;98291.66;8415359;28;20203;-88
2021/06/07 11:55:33;;;;;;;14.13;12.63;;;;;;;25.15;50.99;98290.66;8416672;28;20206;-87
2021/06/07 11:59:40;;;;;;;14.57;12.80;;;;;;;24.96;51.11;98297.81;8417280;28;20398;-88
2021/06/07 12:03:44;;;;;;;14.50;12.93;;;;;;;24.77;51.93;98295.31;8415122;28;20394;-87
2021/06/07 12:07:46;;;;;;;15.10;13.70;;;;;;;24.50;52.34;98293.47;8415538;28;20238;-88
2021/06/07 12:11:49;;;;;;;16.80;14.87;;;;;;;24.28;52.75;98307.97;8416940;28;20192;-88
2021/06/07 12:15:55;;;;;;;15.77;12.70;;;;;;;23.94;53.99;98301.41;8416391;28;20201;-87
2021/06/07 12:20:00;;;;;;;11.63;10.20;;;;;;;23.62;53.73;98299.91;8417897;28;20265;-87
2021/06/07 12:24:06;;;;;;;11.23;7.00;;;;;;;23.31;54.82;98312.50;8417585;28;20198;-89
2021/06/07 12:28:19;;;;;;;16.33;5.30;;;;;;;22.33;55.95;98300.97;8419050;28;20521;-90
2021/06/07 12:32:24;;;;;;;15.23;4.43;;;;;;;22.54;56.25;98305.31;8416923;28;20211;-89
2021/06/07 12:36:33;;;;;;;16.13;4.87;;;;;;;22.60;56.45;98299.50;8417103;28;20384;-90
2021/06/07 12:40:39;;;;;;;8.65;5.05;;;;;;;23.02;55.24;98291.34;8416663;28;20474;-88
2021/06/07 12:44:42;;;;;;;9.30;5.70;;;;;;;22.56;57.25;98293.66;8418824;28;20204;-89
2021/06/07 12:48:45;;;;;;;9.13;4.73;;;;;;;22.31;58.43;98297.59;8419936;28;20222;-89
2021/06/07 12:52:51;;;;;;;8.73;3.60;;;;;;;22.15;57.44;98300.72;8416023;28;20191;-88
2021/06/07 12:56:53;;;;;;;11.37;3.47;;;;;;;22.27;58.86;98290.13;8424802;28;20198;-89
2021/06/07 13:00:57;;;;;;;10.03;3.10;;;;;;;22.18;57.67;98282.00;8422883;28;20194;-90
2021/06/07 13:05:01;;;;;;;8.67;3.60;;;;;;;22.21;57.23;98278.25;8418216;28;20235;-89
2021/06/07 13:09:07;;;;;;;9.77;3.80;;;;;;;22.21;58.62;98275.63;8418547;28;20419;-90
2021/06/07 13:13:17;;;;;;;11.13;3.80;;;;;;;22.22;58.39;98282.59;8418175;28;20198;-90
2021/06/07 13:17:21;;;;;;;8.33;3.87;;;;;;;21.94;58.32;98279.69;8422387;28;20274;-90
2021/06/07 13:21:37;;;;;;;9.07;4.50;;;;;;;21.99;59.06;98284.56;8425612;28;20493;-90
2021/06/07 13:25:39;;;;;;;10.23;4.63;;;;;;;22.40;59.11;98286.25;8420525;28;20207;-91
2021/06/07 13:29:42;;;;;;;9.23;4.37;;;;;;;22.48;58.70;98276.84;8422021;28;21308;-90
2021/06/07 13:33:44;;;;;;;13.37;4.80;;;;;;;22.95;58.26;98271.75;8419752;28;20199;-92
2021/06/07 13:37:49;;;;;;;10.17;4.60;;;;;;;23.26;58.97;98271.63;8423294;28;20202;-92
2021/06/07 13:41:55;;;;;;;10.63;4.50;;;;;;;23.65;57.11;98268.91;8423028;28;20213;-91
2021/06/07 13:45:58;;;;;;;7.87;4.90;;;;;;;23.91;55.98;98283.19;8422074;28;20210;-91
2021/06/07 13:50:04;;;;;;;9.23;5.27;;;;;;;24.40;55.58;98270.53;8421949;28;20406;-88
2021/06/07 13:54:10;;;;;;;5.60;4.93;;;;;;;24.25;53.80;98263.25;8389398;28;20204;-92
2021/06/07 13:58:15;;;;;;;5.57;5.00;;;;;;;24.35;54.68;98270.19;8388720;28;20219;-88
2021/06/07 14:02:17;;;;;;;7.90;5.23;;;;;;;24.47;55.43;98275.28;8391939;28;20202;-86
2021/06/07 14:06:20;;;;;;;6.30;4.87;;;;;;;24.40;54.74;98275.00;8420902;28;20238;-85
2021/06/07 14:10:24;;;;;;;6.87;5.50;;;;;;;24.24;53.83;98274.81;8420473;28;20393;-86
2021/06/07 14:14:26;;;;;;;6.37;5.70;;;;;;;24.71;52.56;98269.41;8420273;28;20199;-86
2021/06/07 14:18:29;;;;;;;6.60;6.00;;;;;;;24.91;52.25;98268.28;8420587;28;20206;-86
2021/06/07 14:26:54;;;;;;;9.57;7.27;;;;;;;24.91;51.79;98248.91;8419023;28;20397;-85
2021/06/07 14:30:56;;;;;;;8.87;7.73;;;;;;;24.87;51.10;98258.97;8419045;28;20227;-85
2021/06/07 14:34:59;;;;;;;9.80;8.77;;;;;;;24.60;53.87;98257.25;8420145;28;20368;-85
2021/06/07 14:39:01;;;;;;;10.80;9.70;;;;;;;24.55;53.52;98260.31;8419932;28;20478;-86
2021/06/07 14:43:08;;;;;;;9.80;8.97;;;;;;;24.56;54.92;98258.50;8419237;28;20248;-85
2021/06/07 14:47:10;;;;;;;11.70;10.60;;;;;;;24.51;55.33;98251.00;8419725;28;20184;-84
2021/06/07 14:51:13;;;;;;;11.83;10.63;;;;;;;24.55;55.88;98247.09;8419562;28;20223;-85
2021/06/07 14:55:16;;;;;;;14.20;11.10;;;;;;;24.50;55.92;98235.25;8420032;28;20489;-85
2021/06/07 14:59:20;;;;;;;13.10;11.87;;;;;;;24.43;55.64;98240.31;8419545;28;20387;-85
2021/06/07 15:03:23;;;;;;;13.27;11.87;;;;;;;24.56;56.14;98224.06;8419084;28;20196;-85
2021/06/07 15:07:26;;;;;;;12.27;10.90;;;;;;;24.50;54.76;98222.88;8418513;28;20233;-85
2021/06/07 15:11:29;;;;;;;12.63;10.70;;;;;;;24.54;54.96;98228.69;8418690;28;20423;-85
2021/06/07 15:15:34;;;;;;;13.20;9.70;;;;;;;24.85;53.31;98226.53;8420331;28;20476;-83
2021/06/07 15:19:37;;;;;;;15.33;10.57;;;;;;;24.73;55.34;98217.13;8421148;28;20391;-84
2021/06/07 15:23:39;;;;;;;10.80;9.70;;;;;;;24.70;54.70;98214.81;8419306;28;20206;-84
2021/06/07 15:27:44;;;;;;;11.50;10.43;;;;;;;24.68;55.02;98211.47;8422722;28;20197;-85
2021/06/07 15:31:48;;;;;;;12.30;10.57;;;;;;;24.66;55.32;98214.25;8418858;28;20197;-85
2021/06/07 15:35:51;;;;;;;10.77;9.67;;;;;;;24.76;54.66;98203.59;8418999;28;20205;-85
2021/06/07 15:39:53;;;;;;;12.43;11.13;;;;;;;24.86;55.95;98208.81;8419462;28;20209;-85
2021/06/07 15:43:56;;;;;;;13.07;11.73;;;;;;;24.89;56.15;98213.81;8415737;28;20205;-85
2021/06/07 15:48:00;;;;;;;11.90;10.73;;;;;;;24.98;56.31;98199.66;8417089;28;20201;-85
2021/06/07 15:52:03;;;;;;;10.93;9.77;;;;;;;25.01;55.40;98201.97;8417969;28;20198;-84
2021/06/07 15:56:06;;;;;;;10.20;9.20;;;;;;;25.19;55.26;98196.66;8415430;28;20203;-84
2021/06/07 16:00:10;;;;;;;12.13;10.10;;;;;;;24.83;55.32;98203.81;8416391;28;20197;-85
2021/06/07 16:04:14;;;;;;;10.93;9.70;;;;;;;25.01;55.15;98201.97;8416342;28;20192;-85
2021/06/07 16:08:17;;;;;;;10.73;9.63;;;;;;;25.28;54.92;98206.31;8418941;28;20279;-85
2021/06/07 16:12:20;;;;;;;10.30;9.20;;;;;;;25.39;54.59;98199.94;8382284;28;20207;-85
2021/06/07 16:16:25;;;;;;;11.87;9.23;;;;;;;25.16;53.31;98215.50;8398588;28;20202;-87
2021/06/07 16:24:50;;;;;;;10.37;9.37;;;;;;;24.98;55.61;98220.84;8416747;28;20200;-84
2021/06/07 16:28:55;;;;;;;10.67;9.57;;;;;;;24.77;55.61;98229.94;8417291;28;20223;-84
2021/06/07 16:32:57;;;;;;;9.17;7.70;;;;;;;24.53;51.26;98229.69;8418066;28;20197;-83
2021/06/07 16:37:01;;;;;;;6.87;5.47;;;;;;;24.30;49.29;98240.66;8419627;28;20263;-84
2021/06/07 16:41:04;;;;;;;8.17;6.33;;;;;;;23.91;49.41;98251.47;8418675;28;20205;-84
2021/06/07 16:45:08;;;;;;;6.40;5.80;;;;;;;23.42;50.10;98259.50;8396556;28;20194;-85
2021/06/07 16:49:10;;;;;;;6.20;5.60;;;;;;;23.32;49.89;98268.41;8407318;28;20562;-84
2021/06/07 16:53:15;;;;;;;8.77;6.63;;;;;;;23.05;50.91;98271.78;8424617;28;20206;-86
2021/06/07 16:57:18;;;;;;;16.00;6.63;;;;;;;23.03;50.74;98266.63;8424187;28;20453;-87
2021/06/07 17:01:20;;;;;;;11.70;5.70;;;;;;;23.00;50.42;98258.97;8424818;28;20201;-86
2021/06/07 17:05:23;;;;;;;9.47;5.57;;;;;;;22.94;48.49;98251.59;8424762;28;20253;-85
2021/06/07 17:09:28;;;;;;;7.93;5.77;;;;;;;22.91;48.71;98244.78;8424410;28;20397;-90
2021/06/07 17:13:31;;;;;;;6.03;4.20;;;;;;;22.77;48.64;98238.13;8402022;28;20198;-86
2021/06/07 17:17:34;;;;;;;4.83;4.07;;;;;;;22.50;48.36;98237.94;8424495;28;20210;-89
2021/06/07 17:21:36;;;;;;;11.87;4.10;;;;;;;22.62;48.58;98242.97;8424097;28;20202;-88
2021/06/07 17:25:42;;;;;;;9.13;4.40;;;;;;;22.82;50.03;98243.78;8421394;28;20287;-88
2021/06/07 17:29:44;;;;;;;4.57;3.93;;;;;;;22.88;50.23;98245.06;8422521;28;20229;-86
2021/06/07 17:33:47;;;;;;;8.13;4.23;;;;;;;22.84;50.40;98252.41;8422581;28;20201;-86
2021/06/07 17:37:49;;;;;;;4.97;4.20;;;;;;;22.80;51.74;98260.75;8422421;28;20202;-86
2021/06/07 17:41:53;;;;;;;8.53;4.70;;;;;;;22.79;51.65;98267.84;8421360;28;20203;-88
2021/06/07 17:45:57;;;;;;;4.93;4.43;;;;;;;22.73;51.60;98271.06;8421424;28;20234;-83
2021/06/07 17:50:00;;;;;;;5.17;4.10;;;;;;;22.76;51.81;98275.22;8421700;28;20226;-85
2021/06/07 17:54:02;;;;;;;5.70;4.60;;;;;;;22.65;53.64;98284.09;8421819;28;20213;-86
2021/06/07 17:58:06;;;;;;;6.70;5.07;;;;;;;22.54;54.50;98286.84;8420527;28;20199;-85
2021/06/07 18:02:09;;;;;;;7.43;5.00;;;;;;;22.49;55.55;98286.44;8419672;28;20210;-85
2021/06/07 18:06:11;;;;;;;8.27;5.50;;;;;;;22.48;56.25;98288.22;8420254;28;20232;-86
2021/06/07 18:10:17;;;;;;;8.50;6.23;;;;;;;22.35;57.76;98282.34;8419868;28;20250;-85
2021/06/07 18:14:21;;;;;;;8.83;6.80;;;;;;;22.42;58.11;98276.41;8419086;28;20271;-86
2021/06/07 18:18:25;;;;;;;8.60;6.80;;;;;;;22.30;58.30;98280.13;8419294;28;20251;-85
2021/06/07 18:22:28;;;;;;;7.47;6.70;;;;;;;22.32;57.94;98285.28;8418719;28;20389;-85
2021/06/07 18:26:30;;;;;;;9.83;6.57;;;;;;;22.27;57.98;98277.75;8419006;28;20199;-85
2021/06/07 18:30:34;;;;;;;8.20;7.13;;;;;;;22.21;57.96;98284.34;8418953;28;20262;-85
2021/06/07 18:34:36;;;;;;;8.57;7.30;;;;;;;22.16;58.91;98286.59;8418589;28;20228;-84
2021/06/07 18:38:39;;;;;;;10.43;7.80;;;;;;;22.11;59.37;98295.88;8417936;28;20214;-84
2021/06/07 18:42:42;;;;;;;11.43;8.27;;;;;;;22.05;59.44;98291.97;8418284;28;20195;-86
2021/06/07 18:46:46;;;;;;;10.23;8.50;;;;;;;22.03;59.93;98285.97;8418379;28;20490;-87
2021/06/07 18:50:49;;;;;;;10.47;7.80;;;;;;;21.89;60.53;98273.13;8417841;28;20242;-84
2021/06/07 18:54:51;;;;;;;10.67;8.83;;;;;;;21.69;61.05;98283.59;8418203;28;20212;-84
2021/06/07 18:58:53;;;;;;;16.30;8.70;;;;;;;21.82;60.70;98283.41;8417908;28;20212;-84
2021/06/07 19:02:57;;;;;;;9.50;8.47;;;;;;;21.70;60.10;98284.44;8417967;28;20600;-84